Time;durP1;ratioP1;P1;durP2;ratioP2;P2;SDS_P1;SDS_P2;PMS_P1;PMS_P2;Temp;Humidity;BMP_temperature;BMP_pressure;BME280_temperature;BME280_humidity;BME280_pressure;Samples;Min_cycle;Max_cycle;Signal;HPM_P1;HPM_P2
2022/06/25 00:02:07;;;;;;;;;;;24.00;68.30;;;;;;5111146;27;19935;-67
2022/06/25 00:07:16;;;;;;;;;;;24.00;68.20;;;;;;5111127;27;19980;-68
2022/06/25 00:09:44;;;;;;;;;;;24.00;68.20;;;;;;5095738;27;19932;-67
2022/06/25 00:14:54;;;;;;;;;;;24.00;68.10;;;;;;5113679;27;20719;-65
2022/06/25 00:17:20;;;;;;;;;;;24.00;68.00;;;;;;5112702;27;19924;-67
2022/06/25 00:19:46;;;;;;;;;;;24.00;68.00;;;;;;5110791;27;20321;-67
2022/06/25 00:22:12;;;;;;;;;;;24.00;68.00;;;;;;5114448;27;19924;-67
2022/06/25 00:24:37;;;;;;;;;;;24.00;68.00;;;;;;5112580;27;19927;-67
2022/06/25 00:27:03;;;;;;;;;;;24.00;68.60;;;;;;5093770;27;19935;-65
2022/06/25 00:29:28;;;;;;;;;;;24.00;67.80;;;;;;5094132;27;19923;-67
2022/06/25 00:31:54;;;;;;;;;;;23.90;67.80;;;;;;5115186;27;19931;-67
2022/06/25 00:34:19;;;;;;;;;;;24.00;67.80;;;;;;5113078;27;19928;-67
2022/06/25 00:36:45;;;;;;;;;;;24.00;67.80;;;;;;5095241;27;19955;-66
2022/06/25 00:39:10;;;;;;;;;;;23.90;67.70;;;;;;5113884;27;19970;-66
2022/06/25 00:41:36;;;;;;;;;;;23.90;67.70;;;;;;5111493;27;19927;-67
2022/06/25 00:44:08;;;;;;;;;;;23.90;67.60;;;;;;5096689;27;19931;-66
2022/06/25 00:46:34;;;;;;;;;;;23.90;67.60;;;;;;5114039;27;19947;-66
2022/06/25 00:48:59;;;;;;;;;;;23.90;67.50;;;;;;5114877;27;20395;-67
2022/06/25 00:51:26;;;;;;;;;;;23.90;67.50;;;;;;5113911;27;20024;-66
2022/06/25 00:53:55;;;;;;;;;;;23.90;67.40;;;;;;5113509;27;19920;-67
2022/06/25 00:56:21;;;;;;;;;;;23.90;67.40;;;;;;5094180;27;19924;-67
2022/06/25 00:58:49;;;;;;;;;;;23.90;67.40;;;;;;5111458;27;20052;-67
2022/06/25 01:01:15;;;;;;;;;;;23.90;67.30;;;;;;5113289;27;19930;-66
2022/06/25 01:03:41;;;;;;;;;;;23.90;67.30;;;;;;5111326;27;19924;-67
2022/06/25 01:06:07;;;;;;;;;;;23.90;67.30;;;;;;5114003;27;19972;-67
2022/06/25 01:08:33;;;;;;;;;;;23.90;67.20;;;;;;5112987;27;20425;-67
2022/06/25 01:10:59;;;;;;;;;;;23.90;67.20;;;;;;5112499;27;20059;-67
2022/06/25 01:13:25;;;;;;;;;;;23.90;67.20;;;;;;5095842;27;20002;-66
2022/06/25 01:15:50;;;;;;;;;;;23.90;67.20;;;;;;5112634;27;19931;-67
2022/06/25 01:18:16;;;;;;;;;;;23.90;67.10;;;;;;5113439;27;19919;-66
2022/06/25 01:20:45;;;;;;;;;;;23.90;67.00;;;;;;5097975;27;19976;-67
2022/06/25 01:23:11;;;;;;;;;;;23.90;67.00;;;;;;5114775;27;19931;-67
2022/06/25 01:25:37;;;;;;;;;;;23.90;67.00;;;;;;5094648;27;19945;-66
2022/06/25 01:28:03;;;;;;;;;;;23.90;67.20;;;;;;5112621;27;19930;-66
2022/06/25 01:30:28;;;;;;;;;;;23.90;66.90;;;;;;5113398;27;19923;-66
2022/06/25 01:32:54;;;;;;;;;;;23.90;66.90;;;;;;5113566;27;19927;-66
2022/06/25 01:35:19;;;;;;;;;;;23.90;66.80;;;;;;5114379;27;19924;-67
2022/06/25 01:37:45;;;;;;;;;;;23.90;66.80;;;;;;5111859;27;19924;-66
2022/06/25 01:40:10;;;;;;;;;;;23.90;66.80;;;;;;5092834;27;19955;-66
2022/06/25 01:45:20;;;;;;;;;;;23.90;66.70;;;;;;5111948;27;19927;-66
2022/06/25 01:47:46;;;;;;;;;;;23.90;66.70;;;;;;5093987;27;20001;-67
2022/06/25 01:50:11;;;;;;;;;;;23.90;66.60;;;;;;5100534;27;20045;-67
2022/06/25 01:52:37;;;;;;;;;;;23.90;67.30;;;;;;5112610;27;19923;-66
2022/06/25 01:55:03;;;;;;;;;;;23.90;66.60;;;;;;5113906;27;20276;-67
2022/06/25 01:57:28;;;;;;;;;;;23.90;66.50;;;;;;5094704;27;19924;-67
2022/06/25 01:59:54;;;;;;;;;;;23.90;66.40;;;;;;5094017;27;19919;-66
2022/06/25 02:02:19;;;;;;;;;;;23.90;66.40;;;;;;5110544;27;19924;-66
2022/06/25 02:04:45;;;;;;;;;;;23.90;66.40;;;;;;5109603;27;19923;-66
2022/06/25 02:07:11;;;;;;;;;;;23.90;66.30;;;;;;5109413;27;20708;-66
2022/06/25 02:09:36;;;;;;;;;;;23.90;66.40;;;;;;5095255;27;20013;-67
2022/06/25 02:12:03;;;;;;;;;;;23.80;66.20;;;;;;5114201;27;20400;-67
2022/06/25 02:14:28;;;;;;;;;;;23.90;66.20;;;;;;5113579;27;19957;-67
2022/06/25 02:16:54;;;;;;;;;;;23.80;66.10;;;;;;5112290;27;19919;-67
2022/06/25 02:19:19;;;;;;;;;;;23.80;66.10;;;;;;5112865;27;19923;-66
2022/06/25 02:21:45;;;;;;;;;;;23.80;66.10;;;;;;5111696;27;19926;-67
2022/06/25 02:24:10;;;;;;;;;;;23.80;66.10;;;;;;5112413;27;20387;-69
2022/06/25 02:26:36;;;;;;;;;;;23.80;66.80;;;;;;5111665;27;19928;-67
2022/06/25 02:29:02;;;;;;;;;;;23.80;66.00;;;;;;5111609;27;19924;-66
2022/06/25 02:31:28;;;;;;;;;;;23.80;66.00;;;;;;5115504;27;19919;-67
2022/06/25 02:33:53;;;;;;;;;;;23.80;65.90;;;;;;5111999;27;19930;-65
2022/06/25 02:36:19;;;;;;;;;;;23.80;65.90;;;;;;5091442;27;19926;-67
2022/06/25 02:38:45;;;;;;;;;;;23.80;65.90;;;;;;5110461;27;19930;-66
2022/06/25 02:41:11;;;;;;;;;;;23.80;65.80;;;;;;5111951;27;19931;-67
2022/06/25 02:43:36;;;;;;;;;;;23.80;65.80;;;;;;5111384;27;19958;-68
2022/06/25 02:46:02;;;;;;;;;;;23.80;65.80;;;;;;5098558;27;19920;-67
2022/06/25 02:48:27;;;;;;;;;;;23.80;65.80;;;;;;5111300;27;19946;-67
2022/06/25 02:50:53;;;;;;;;;;;23.80;65.70;;;;;;5111508;28;20389;-66
2022/06/25 02:53:18;;;;;;;;;;;23.80;65.70;;;;;;5095453;28;20018;-67
2022/06/25 03:01:12;;;;;;;;;;;23.80;65.70;;;;;;5110670;28;19984;-66
2022/06/25 03:03:38;;;;;;;;;;;23.80;65.60;;;;;;5093029;28;19924;-66
2022/06/25 03:06:03;;;;;;;;;;;23.80;65.60;;;;;;5115657;28;19976;-66
2022/06/25 03:08:29;;;;;;;;;;;23.80;65.60;;;;;;5110535;28;19924;-66
2022/06/25 03:10:54;;;;;;;;;;;23.80;65.50;;;;;;5077256;28;19981;-66
2022/06/25 03:13:20;;;;;;;;;;;23.80;65.50;;;;;;5093265;28;19923;-66
2022/06/25 03:15:45;;;;;;;;;;;23.80;65.50;;;;;;5110349;27;19923;-66
2022/06/25 03:18:11;;;;;;;;;;;23.80;65.50;;;;;;5110026;28;19957;-66
2022/06/25 03:20:37;;;;;;;;;;;23.80;65.40;;;;;;5095509;28;19976;-66
2022/06/25 03:23:02;;;;;;;;;;;23.80;65.40;;;;;;5111010;28;19920;-66
2022/06/25 03:25:28;;;;;;;;;;;23.80;65.30;;;;;;5114422;27;19923;-66
2022/06/25 03:27:54;;;;;;;;;;;23.80;66.10;;;;;;5109366;28;20145;-65
2022/06/25 03:30:19;;;;;;;;;;;23.80;65.30;;;;;;5091189;28;19968;-66
2022/06/25 03:32:45;;;;;;;;;;;23.80;66.00;;;;;;5111639;28;19924;-66
2022/06/25 03:35:10;;;;;;;;;;;23.80;65.30;;;;;;5112068;28;19920;-66
2022/06/25 03:37:36;;;;;;;;;;;23.80;65.20;;;;;;5116390;27;20040;-66
2022/06/25 03:40:02;;;;;;;;;;;23.80;65.20;;;;;;5117522;27;19927;-66
2022/06/25 03:42:27;;;;;;;;;;;23.80;65.30;;;;;;5114410;27;19923;-66
2022/06/25 03:44:53;;;;;;;;;;;23.80;65.20;;;;;;5116341;27;20338;-66
2022/06/25 03:47:18;;;;;;;;;;;23.80;65.20;;;;;;5116746;27;19973;-66
2022/06/25 03:49:44;;;;;;;;;;;23.80;65.10;;;;;;5116004;27;19920;-67
2022/06/25 03:52:09;;;;;;;;;;;23.80;65.10;;;;;;5098629;27;19927;-66
2022/06/25 03:54:37;;;;;;;;;;;23.70;65.00;;;;;;5116637;27;19964;-66
2022/06/25 03:57:03;;;;;;;;;;;23.70;64.90;;;;;;5096230;27;19924;-65
2022/06/25 03:59:29;;;;;;;;;;;23.80;65.00;;;;;;5114330;27;20283;-67
2022/06/25 04:01:54;;;;;;;;;;;23.70;64.90;;;;;;5113740;27;19920;-66
2022/06/25 04:04:20;;;;;;;;;;;23.80;64.90;;;;;;5115843;27;20065;-66
2022/06/25 04:06:45;;;;;;;;;;;23.70;64.80;;;;;;5114126;27;19923;-66
2022/06/25 04:09:11;;;;;;;;;;;23.70;64.80;;;;;;5116268;27;20257;-66
2022/06/25 04:11:37;;;;;;;;;;;23.70;64.80;;;;;;5115022;27;19924;-66
2022/06/25 04:14:03;;;;;;;;;;;23.70;64.80;;;;;;5114192;27;19923;-66
2022/06/25 04:16:28;;;;;;;;;;;23.70;64.80;;;;;;5114318;27;19930;-66
2022/06/25 04:18:54;;;;;;;;;;;23.70;64.70;;;;;;5114478;27;19919;-66
2022/06/25 04:21:19;;;;;;;;;;;23.70;64.80;;;;;;5115977;27;19919;-65
2022/06/25 04:23:45;;;;;;;;;;;23.70;64.80;;;;;;5112768;27;20328;-66
2022/06/25 04:26:10;;;;;;;;;;;23.70;64.70;;;;;;5114953;27;19970;-66
2022/06/25 04:31:20;;;;;;;;;;;23.70;64.70;;;;;;5114891;27;20605;-70
2022/06/25 04:33:45;;;;;;;;;;;23.70;64.70;;;;;;5097902;27;19923;-73
2022/06/25 04:36:11;;;;;;;;;;;23.70;64.60;;;;;;5095176;27;19973;-65
2022/06/25 04:38:36;;;;;;;;;;;23.70;64.60;;;;;;5114300;27;19934;-66
2022/06/25 04:41:02;;;;;;;;;;;23.70;64.60;;;;;;5113877;27;19928;-65
2022/06/25 04:43:27;;;;;;;;;;;23.70;64.80;;;;;;5111725;27;19930;-65
2022/06/25 04:45:53;;;;;;;;;;;23.70;64.80;;;;;;5077924;27;19923;-65
2022/06/25 04:48:19;;;;;;;;;;;23.70;64.80;;;;;;5110779;27;21507;-65
2022/06/25 04:50:45;;;;;;;;;;;23.70;64.80;;;;;;5112147;27;19934;-65
2022/06/25 04:53:11;;;;;;;;;;;23.70;65.30;;;;;;5116730;27;19923;-65
2022/06/25 04:55:36;;;;;;;;;;;23.70;65.40;;;;;;5093699;27;19995;-65
2022/06/25 04:58:02;;;;;;;;;;;23.70;65.30;;;;;;5114277;27;19923;-64
2022/06/25 05:00:28;;;;;;;;;;;23.70;65.20;;;;;;5112516;27;19931;-64
2022/06/25 05:02:53;;;;;;;;;;;23.70;65.10;;;;;;5111791;27;20019;-64
2022/06/25 05:05:19;;;;;;;;;;;23.70;65.00;;;;;;5115834;27;19919;-65
2022/06/25 05:07:45;;;;;;;;;;;23.70;64.80;;;;;;5113089;27;19930;-65
2022/06/25 05:10:10;;;;;;;;;;;23.70;64.90;;;;;;5113410;27;20288;-65
2022/06/25 05:15:21;;;;;;;;;;;23.70;64.90;;;;;;5094233;27;19934;-65
2022/06/25 05:17:47;;;;;;;;;;;23.70;64.80;;;;;;5113704;27;19931;-65
2022/06/25 05:20:12;;;;;;;;;;;23.70;64.70;;;;;;5116725;27;19924;-63
2022/06/25 05:22:38;;;;;;;;;;;23.70;64.70;;;;;;5115112;27;19924;-64
2022/06/25 05:25:04;;;;;;;;;;;23.70;64.70;;;;;;5111987;27;20023;-64
2022/06/25 05:27:29;;;;;;;;;;;23.70;64.70;;;;;;5109799;27;20045;-64
2022/06/25 05:29:55;;;;;;;;;;;23.70;64.70;;;;;;5114176;27;19923;-64
2022/06/25 05:32:21;;;;;;;;;;;23.70;64.60;;;;;;5112374;27;19923;-64
2022/06/25 05:34:48;;;;;;;;;;;23.70;64.70;;;;;;5089776;27;20164;-64
2022/06/25 05:37:14;;;;;;;;;;;23.70;64.60;;;;;;5091529;27;19927;-65
2022/06/25 05:39:40;;;;;;;;;;;23.70;64.50;;;;;;5109077;27;19944;-67
2022/06/25 05:42:05;;;;;;;;;;;23.70;64.60;;;;;;5109440;27;20869;-66
2022/06/25 05:44:31;;;;;;;;;;;23.70;64.70;;;;;;5111221;27;20531;-65
2022/06/25 05:46:56;;;;;;;;;;;23.70;64.90;;;;;;5092549;27;19973;-65
2022/06/25 05:49:21;;;;;;;;;;;23.70;65.00;;;;;;5107533;27;19954;-66
2022/06/25 05:51:47;;;;;;;;;;;23.70;65.90;;;;;;5111188;27;19927;-65
2022/06/25 05:54:13;;;;;;;;;;;23.70;65.90;;;;;;5110702;27;19923;-67
2022/06/25 05:56:38;;;;;;;;;;;23.70;66.00;;;;;;5110336;27;20272;-67
2022/06/25 05:59:04;;;;;;;;;;;23.80;66.10;;;;;;5110936;27;20458;-67
2022/06/25 06:01:30;;;;;;;;;;;23.70;66.20;;;;;;5112534;27;19930;-67
2022/06/25 06:03:55;;;;;;;;;;;23.70;66.30;;;;;;5109930;27;19930;-67
2022/06/25 06:06:21;;;;;;;;;;;23.70;66.30;;;;;;5111218;27;19923;-68
2022/06/25 06:08:46;;;;;;;;;;;23.80;66.60;;;;;;5094795;27;20465;-67
2022/06/25 06:11:12;;;;;;;;;;;23.80;66.80;;;;;;5109533;27;20797;-67
2022/06/25 06:13:37;;;;;;;;;;;23.80;66.80;;;;;;5114017;27;19950;-66
2022/06/25 06:16:03;;;;;;;;;;;23.80;66.70;;;;;;5094455;27;19928;-68
2022/06/25 06:18:29;;;;;;;;;;;23.80;66.90;;;;;;5113708;27;19968;-66
2022/06/25 06:20:54;;;;;;;;;;;23.80;66.90;;;;;;5094455;27;19935;-67
2022/06/25 06:23:20;;;;;;;;;;;23.80;66.80;;;;;;5092196;27;19927;-66
2022/06/25 06:25:45;;;;;;;;;;;23.80;66.90;;;;;;5111011;27;19931;-67
2022/06/25 06:28:11;;;;;;;;;;;23.80;67.00;;;;;;5111119;27;20363;-66
2022/06/25 06:30:37;;;;;;;;;;;23.80;67.00;;;;;;5111290;27;20006;-66
2022/06/25 06:33:03;;;;;;;;;;;23.80;67.10;;;;;;5092984;27;20040;-66
2022/06/25 06:35:29;;;;;;;;;;;23.80;67.20;;;;;;5093064;28;19924;-66
2022/06/25 06:37:54;;;;;;;;;;;23.80;67.10;;;;;;5095197;27;19923;-68
2022/06/25 06:40:20;;;;;;;;;;;23.80;67.20;;;;;;5113630;27;20486;-66
2022/06/25 06:42:45;;;;;;;;;;;23.80;67.30;;;;;;5113322;27;20306;-66
2022/06/25 06:45:11;;;;;;;;;;;23.80;67.30;;;;;;5115698;27;21256;-66
2022/06/25 06:47:37;;;;;;;;;;;23.90;67.20;;;;;;5111022;27;20029;-66
2022/06/25 06:50:02;;;;;;;;;;;23.90;67.20;;;;;;5095790;27;19919;-66
2022/06/25 06:52:28;;;;;;;;;;;23.80;67.20;;;;;;5113053;27;19959;-68
2022/06/25 06:54:53;;;;;;;;;;;23.80;67.00;;;;;;5112389;28;20284;-67
2022/06/25 06:57:19;;;;;;;;;;;23.90;67.20;;;;;;5113011;28;20378;-66
2022/06/25 06:59:44;;;;;;;;;;;23.90;67.20;;;;;;5108859;27;19923;-67
2022/06/25 07:02:10;;;;;;;;;;;23.90;67.20;;;;;;5110366;28;20023;-66
2022/06/25 07:04:35;;;;;;;;;;;23.90;67.20;;;;;;5110447;28;20477;-69
2022/06/25 07:07:01;;;;;;;;;;;23.90;66.90;;;;;;5093350;28;19930;-70
2022/06/25 07:09:27;;;;;;;;;;;23.90;66.90;;;;;;5110439;28;19923;-67
2022/06/25 07:11:52;;;;;;;;;;;23.90;66.70;;;;;;5112515;27;20540;-67
2022/06/25 07:14:18;;;;;;;;;;;23.90;66.80;;;;;;5117071;27;19927;-68
2022/06/25 07:16:43;;;;;;;;;;;23.90;66.80;;;;;;5114618;27;19931;-71
2022/06/25 07:19:10;;;;;;;;;;;23.90;66.80;;;;;;5114304;27;19930;-68
2022/06/25 07:21:36;;;;;;;;;;;23.90;66.90;;;;;;5080991;27;20076;-67
2022/06/25 07:24:01;;;;;;;;;;;23.90;66.80;;;;;;5097088;27;19933;-67
2022/06/25 07:26:27;;;;;;;;;;;23.90;67.00;;;;;;5114836;27;19930;-67
2022/06/25 07:28:53;;;;;;;;;;;23.90;67.00;;;;;;5113181;27;19953;-67
2022/06/25 07:31:19;;;;;;;;;;;23.90;67.00;;;;;;5098488;27;19923;-68
2022/06/25 07:33:44;;;;;;;;;;;23.90;66.90;;;;;;5100074;27;19989;-68
2022/06/25 07:36:10;;;;;;;;;;;23.90;66.80;;;;;;5113861;27;20046;-67
2022/06/25 07:38:36;;;;;;;;;;;23.90;66.70;;;;;;5113923;27;19947;-66
2022/06/25 07:41:01;;;;;;;;;;;23.90;66.70;;;;;;5118945;27;19976;-67
2022/06/25 07:43:27;;;;;;;;;;;23.90;66.70;;;;;;5098047;27;19928;-67
2022/06/25 07:45:53;;;;;;;;;;;23.90;66.70;;;;;;5098516;27;19967;-68
2022/06/25 07:48:18;;;;;;;;;;;23.90;66.60;;;;;;5096741;27;19923;-67
2022/06/25 07:53:28;;;;;;;;;;;23.90;66.70;;;;;;5097957;27;20501;-66
2022/06/25 07:55:53;;;;;;;;;;;23.90;66.70;;;;;;5097642;27;20358;-67
2022/06/25 07:58:19;;;;;;;;;;;23.90;66.50;;;;;;5114434;27;20042;-67
2022/06/25 08:00:45;;;;;;;;;;;23.90;66.60;;;;;;5113859;27;19978;-66
2022/06/25 08:03:10;;;;;;;;;;;23.90;66.60;;;;;;5086091;27;20627;-66
2022/06/25 08:05:36;;;;;;;;;;;23.90;67.30;;;;;;5099092;27;20222;-66
2022/06/25 08:08:01;;;;;;;;;;;23.90;67.20;;;;;;5114976;27;19923;-67
2022/06/25 08:10:27;;;;;;;;;;;23.90;66.80;;;;;;5117004;27;19959;-67
2022/06/25 08:12:52;;;;;;;;;;;23.90;66.50;;;;;;5093915;27;19967;-67
2022/06/25 08:15:19;;;;;;;;;;;23.90;66.60;;;;;;5113918;27;19955;-67
2022/06/25 08:17:48;;;;;;;;;;;23.90;66.70;;;;;;5116223;27;20584;-66
2022/06/25 08:20:14;;;;;;;;;;;23.90;66.70;;;;;;5116321;27;20384;-67
2022/06/25 08:22:39;;;;;;;;;;;23.90;66.80;;;;;;5115441;27;19931;-67
2022/06/25 08:25:07;;;;;;;;;;;23.90;66.90;;;;;;5117117;27;19923;-67
2022/06/25 08:27:33;;;;;;;;;;;23.90;66.90;;;;;;5115821;27;20018;-67
2022/06/25 08:29:59;;;;;;;;;;;24.00;66.90;;;;;;5093928;27;20334;-67
2022/06/25 08:32:24;;;;;;;;;;;23.90;66.90;;;;;;5114370;27;20591;-67
2022/06/25 08:34:50;;;;;;;;;;;24.00;66.80;;;;;;5087912;27;19930;-67
2022/06/25 08:37:15;;;;;;;;;;;24.00;66.80;;;;;;5114784;27;20357;-67
2022/06/25 08:39:41;;;;;;;;;;;24.00;66.70;;;;;;5114540;27;19930;-68
2022/06/25 08:42:06;;;;;;;;;;;23.90;66.70;;;;;;5115225;27;19931;-67
2022/06/25 08:44:32;;;;;;;;;;;23.90;67.00;;;;;;5095339;27;20006;-68
2022/06/25 08:46:58;;;;;;;;;;;24.00;67.40;;;;;;5113483;27;19945;-68
2022/06/25 08:49:24;;;;;;;;;;;24.00;67.30;;;;;;5113120;27;20374;-68
2022/06/25 08:51:52;;;;;;;;;;;24.00;66.90;;;;;;5094428;27;19924;-70
2022/06/25 08:54:19;;;;;;;;;;;24.00;66.40;;;;;;5112172;27;19934;-69
2022/06/25 08:56:45;;;;;;;;;;;24.00;66.30;;;;;;5113522;27;19923;-69
2022/06/25 08:59:11;;;;;;;;;;;24.00;66.10;;;;;;5111713;27;19930;-66
2022/06/25 09:01:36;;;;;;;;;;;24.00;66.20;;;;;;5095918;27;20340;-67
2022/06/25 09:04:02;;;;;;;;;;;24.00;66.00;;;;;;5116905;27;20278;-67
2022/06/25 09:06:28;;;;;;;;;;;24.00;66.00;;;;;;5113608;27;19962;-67
2022/06/25 09:09:06;;;;;;;;;;;24.00;66.10;;;;;;5115594;27;20591;-67
2022/06/25 09:11:46;;;;;;;;;;;24.00;66.10;;;;;;5116107;27;19927;-66
2022/06/25 09:14:19;;;;;;;;;;;24.00;66.10;;;;;;5094953;27;19934;-67
2022/06/25 09:16:48;;;;;;;;;;;24.00;66.10;;;;;;5114789;27;19939;-67
2022/06/25 09:19:26;;;;;;;;;;;24.00;65.80;;;;;;5095940;27;19934;-67
2022/06/25 09:21:51;;;;;;;;;;;24.00;65.50;;;;;;5112231;27;20375;-66
2022/06/25 09:24:17;;;;;;;;;;;24.00;65.70;;;;;;5112819;27;19927;-67
2022/06/25 09:26:49;;;;;;;;;;;24.00;66.00;;;;;;5102535;27;20023;-66
2022/06/25 09:29:15;;;;;;;;;;;24.00;65.90;;;;;;5112166;27;19933;-71
2022/06/25 09:31:40;;;;;;;;;;;24.00;65.70;;;;;;5114463;27;19923;-69
2022/06/25 09:34:07;;;;;;;;;;;24.00;65.50;;;;;;5112506;27;19928;-68
2022/06/25 09:36:33;;;;;;;;;;;24.00;65.90;;;;;;5115382;27;19976;-69
2022/06/25 09:38:58;;;;;;;;;;;24.00;66.00;;;;;;5094612;27;19923;-68
2022/06/25 09:41:24;;;;;;;;;;;24.00;65.90;;;;;;5113000;27;19923;-69
2022/06/25 09:43:51;;;;;;;;;;;24.00;65.90;;;;;;5111790;27;20000;-68
2022/06/25 09:46:17;;;;;;;;;;;24.00;65.90;;;;;;5113286;27;19955;-69
2022/06/25 09:48:42;;;;;;;;;;;24.00;65.70;;;;;;5113382;27;19923;-67
2022/06/25 09:51:08;;;;;;;;;;;24.00;65.80;;;;;;5113018;27;19968;-68
2022/06/25 09:53:34;;;;;;;;;;;24.00;65.90;;;;;;5114274;27;19968;-69
2022/06/25 09:56:01;;;;;;;;;;;24.00;65.90;;;;;;5112017;27;20551;-68
2022/06/25 09:58:28;;;;;;;;;;;24.00;65.90;;;;;;5112201;27;20440;-68
2022/06/25 10:00:54;;;;;;;;;;;24.00;66.00;;;;;;5113559;27;19931;-69
2022/06/25 10:03:20;;;;;;;;;;;24.00;66.10;;;;;;5111532;27;19974;-69
2022/06/25 10:05:46;;;;;;;;;;;24.00;66.20;;;;;;5109998;27;19951;-68
2022/06/25 10:08:13;;;;;;;;;;;24.00;66.80;;;;;;5096920;27;20184;-67
2022/06/25 10:10:39;;;;;;;;;;;24.00;66.90;;;;;;5109611;27;19924;-66
2022/06/25 10:13:05;;;;;;;;;;;24.00;66.80;;;;;;5113322;27;19927;-68
2022/06/25 10:15:31;;;;;;;;;;;24.00;66.70;;;;;;5114478;27;19919;-69
2022/06/25 10:17:59;;;;;;;;;;;24.00;66.50;;;;;;5112056;27;19923;-70
2022/06/25 10:20:24;;;;;;;;;;;24.00;66.40;;;;;;5110046;27;19932;-69
2022/06/25 10:22:50;;;;;;;;;;;24.00;66.30;;;;;;5093355;27;19934;-69
2022/06/25 10:25:21;;;;;;;;;;;24.00;66.10;;;;;;5108740;27;19923;-69
2022/06/25 10:27:48;;;;;;;;;;;24.00;66.10;;;;;;5112908;27;20469;-69
2022/06/25 10:30:14;;;;;;;;;;;24.00;65.90;;;;;;5110532;27;20298;-69
2022/06/25 10:32:42;;;;;;;;;;;24.00;65.80;;;;;;5090983;27;20047;-70
2022/06/25 10:35:08;;;;;;;;;;;24.00;65.70;;;;;;5112069;27;19923;-69
2022/06/25 10:37:53;;;;;;;;;;;24.00;65.50;;;;;;5111890;27;19927;-70
2022/06/25 10:40:18;;;;;;;;;;;24.00;65.50;;;;;;5112055;27;19928;-69
2022/06/25 10:42:59;;;;;;;;;;;24.00;65.50;;;;;;5114118;27;19983;-69
2022/06/25 10:45:24;;;;;;;;;;;24.00;65.30;;;;;;5092790;28;19951;-70
2022/06/25 10:47:50;;;;;;;;;;;24.00;65.30;;;;;;5113998;27;20413;-69
2022/06/25 10:50:22;;;;;;;;;;;24.10;65.30;;;;;;5112781;27;19923;-69
2022/06/25 10:53:06;;;;;;;;;;;24.00;65.20;;;;;;5114639;27;19919;-69
2022/06/25 10:55:34;;;;;;;;;;;24.00;65.20;;;;;;5113481;28;20001;-69
2022/06/25 10:58:11;;;;;;;;;;;24.00;65.10;;;;;;5115153;28;19931;-69
2022/06/25 11:00:54;;;;;;;;;;;24.00;65.10;;;;;;5110935;27;19924;-70
2022/06/25 11:03:29;;;;;;;;;;;24.00;65.00;;;;;;5112132;28;19955;-68
2022/06/25 11:05:55;;;;;;;;;;;24.00;65.20;;;;;;5112371;28;19931;-69
2022/06/25 11:08:24;;;;;;;;;;;24.00;65.40;;;;;;5110883;27;19923;-67
2022/06/25 11:10:49;;;;;;;;;;;24.00;65.50;;;;;;5113110;28;20402;-69
2022/06/25 11:13:15;;;;;;;;;;;24.00;65.60;;;;;;5112531;27;19930;-66
2022/06/25 11:15:44;;;;;;;;;;;24.10;65.50;;;;;;5112552;27;19932;-69
2022/06/25 11:18:11;;;;;;;;;;;24.10;65.40;;;;;;5093037;27;20000;-68
2022/06/25 11:20:37;;;;;;;;;;;24.00;65.50;;;;;;5114022;27;20326;-68
2022/06/25 11:23:03;;;;;;;;;;;24.10;65.30;;;;;;5080214;27;20042;-67
2022/06/25 11:28:47;;;;;;;;;;;24.00;65.20;;;;;;5106608;28;19931;-67
2022/06/25 11:31:16;;;;;;;;;;;24.00;65.40;;;;;;5112701;28;19928;-68
2022/06/25 11:33:43;;;;;;;;;;;24.00;65.30;;;;;;5110100;28;19924;-69
2022/06/25 11:36:09;;;;;;;;;;;24.10;65.40;;;;;;5112807;28;19923;-67
2022/06/25 11:38:35;;;;;;;;;;;24.10;65.50;;;;;;5112307;27;20385;-67
2022/06/25 11:41:01;;;;;;;;;;;24.10;65.60;;;;;;5112304;28;19923;-66
2022/06/25 11:43:27;;;;;;;;;;;24.10;65.60;;;;;;5113787;28;19923;-67
2022/06/25 11:45:53;;;;;;;;;;;24.10;65.70;;;;;;5110945;27;19923;-65
2022/06/25 11:48:19;;;;;;;;;;;24.10;65.70;;;;;;5108722;27;19928;-63
2022/06/25 11:50:44;;;;;;;;;;;24.10;65.80;;;;;;5109980;28;19927;-64
2022/06/25 11:53:10;;;;;;;;;;;24.10;65.60;;;;;;5112762;28;19919;-66
2022/06/25 11:55:39;;;;;;;;;;;24.10;65.60;;;;;;5109591;28;19958;-67
2022/06/25 11:58:04;;;;;;;;;;;24.10;65.70;;;;;;5115399;27;19927;-67
2022/06/25 12:00:30;;;;;;;;;;;24.10;65.50;;;;;;5118546;27;19929;-67
2022/06/25 12:03:05;;;;;;;;;;;24.10;65.40;;;;;;5115125;27;20264;-66
2022/06/25 12:05:34;;;;;;;;;;;24.10;65.40;;;;;;5115109;27;20030;-66
2022/06/25 12:07:59;;;;;;;;;;;24.10;65.30;;;;;;5096874;27;19923;-67
2022/06/25 12:10:25;;;;;;;;;;;24.10;65.30;;;;;;5114157;27;19929;-66
2022/06/25 12:12:50;;;;;;;;;;;24.10;65.30;;;;;;5115361;27;20049;-66
2022/06/25 12:15:16;;;;;;;;;;;24.10;65.40;;;;;;5115835;27;19961;-66
2022/06/25 12:17:43;;;;;;;;;;;24.10;65.40;;;;;;5116988;27;19923;-67
2022/06/25 12:20:12;;;;;;;;;;;24.10;65.30;;;;;;5114137;27;19928;-67
2022/06/25 12:22:39;;;;;;;;;;;24.10;65.30;;;;;;5114834;27;20030;-65
2022/06/25 12:25:05;;;;;;;;;;;24.10;65.30;;;;;;5112209;27;21514;-67
2022/06/25 12:27:43;;;;;;;;;;;24.10;65.30;;;;;;5114906;27;20004;-67
2022/06/25 12:30:08;;;;;;;;;;;24.10;65.20;;;;;;5113007;27;20015;-67
2022/06/25 12:32:38;;;;;;;;;;;24.10;65.20;;;;;;5115840;27;20054;-66
2022/06/25 12:35:12;;;;;;;;;;;24.10;65.20;;;;;;5112767;27;19924;-67
2022/06/25 12:37:37;;;;;;;;;;;24.10;65.30;;;;;;5112536;27;19978;-67
2022/06/25 12:40:03;;;;;;;;;;;24.10;65.40;;;;;;5095367;27;20006;-67
2022/06/25 12:42:29;;;;;;;;;;;24.10;65.40;;;;;;5113150;27;19929;-68
2022/06/25 12:44:56;;;;;;;;;;;24.10;65.40;;;;;;5114952;27;19923;-68
2022/06/25 12:47:21;;;;;;;;;;;24.10;65.50;;;;;;5110329;27;19919;-67
2022/06/25 12:49:54;;;;;;;;;;;24.10;65.50;;;;;;5095203;27;19968;-67
2022/06/25 12:52:22;;;;;;;;;;;24.10;65.40;;;;;;5113265;27;20268;-67
2022/06/25 12:54:48;;;;;;;;;;;24.10;65.60;;;;;;5097384;27;19951;-67
2022/06/25 12:57:35;;;;;;;;;;;24.10;65.70;;;;;;5113539;27;19938;-68
2022/06/25 13:00:02;;;;;;;;;;;24.10;65.70;;;;;;5113241;27;20014;-67
2022/06/25 13:02:27;;;;;;;;;;;24.10;65.70;;;;;;5115022;27;19934;-68
2022/06/25 13:04:53;;;;;;;;;;;24.10;65.70;;;;;;5114249;27;19924;-66
2022/06/25 13:07:19;;;;;;;;;;;24.10;65.80;;;;;;5095124;27;19923;-68
2022/06/25 13:09:45;;;;;;;;;;;24.10;65.50;;;;;;5111773;27;19928;-67
2022/06/25 13:12:11;;;;;;;;;;;24.10;65.50;;;;;;5096249;27;20315;-68
2022/06/25 13:14:37;;;;;;;;;;;24.10;65.60;;;;;;5113573;27;19934;-67
2022/06/25 13:17:03;;;;;;;;;;;24.10;65.70;;;;;;5113522;27;20416;-68
2022/06/25 13:19:30;;;;;;;;;;;24.10;65.70;;;;;;5097501;27;19976;-67
2022/06/25 13:21:59;;;;;;;;;;;24.10;65.70;;;;;;5095813;27;19919;-65
2022/06/25 13:24:27;;;;;;;;;;;24.10;65.70;;;;;;5114415;27;19927;-66
2022/06/25 13:26:53;;;;;;;;;;;24.10;65.80;;;;;;5112706;27;19928;-67
2022/06/25 13:29:18;;;;;;;;;;;24.10;65.50;;;;;;5096382;27;19971;-66
2022/06/25 13:31:44;;;;;;;;;;;24.10;65.30;;;;;;5112386;27;19935;-67
2022/06/25 13:34:09;;;;;;;;;;;24.10;65.30;;;;;;5112119;27;19930;-66
2022/06/25 13:36:35;;;;;;;;;;;24.10;65.40;;;;;;5109420;27;20479;-67
2022/06/25 13:39:01;;;;;;;;;;;24.10;65.10;;;;;;5108223;27;20354;-68
2022/06/25 13:41:26;;;;;;;;;;;24.10;65.20;;;;;;5112614;27;19999;-68
2022/06/25 13:43:54;;;;;;;;;;;24.10;65.10;;;;;;5095822;27;20035;-68
2022/06/25 13:46:23;;;;;;;;;;;24.10;65.00;;;;;;5096260;27;19924;-66
2022/06/25 13:48:49;;;;;;;;;;;24.10;65.00;;;;;;5113250;27;19976;-66
2022/06/25 13:51:14;;;;;;;;;;;24.10;64.70;;;;;;5114222;27;19931;-68
2022/06/25 13:53:41;;;;;;;;;;;24.10;64.00;;;;;;5111337;27;19930;-67
2022/06/25 13:56:06;;;;;;;;;;;24.10;63.80;;;;;;5114335;27;19934;-67
2022/06/25 13:58:32;;;;;;;;;;;24.10;64.10;;;;;;5089478;27;19923;-67
2022/06/25 14:00:58;;;;;;;;;;;24.10;64.70;;;;;;5110681;27;20022;-65
2022/06/25 14:03:25;;;;;;;;;;;24.10;64.60;;;;;;5110788;27;19923;-66
2022/06/25 14:05:50;;;;;;;;;;;24.10;64.50;;;;;;5111987;27;19930;-68
2022/06/25 14:08:16;;;;;;;;;;;24.20;64.80;;;;;;5108293;27;20821;-68
2022/06/25 14:10:42;;;;;;;;;;;24.10;64.70;;;;;;5110433;27;19934;-68
2022/06/25 14:13:08;;;;;;;;;;;24.10;64.40;;;;;;5093167;27;20401;-64
2022/06/25 14:15:33;;;;;;;;;;;24.20;63.80;;;;;;5111450;27;20494;-67
2022/06/25 14:18:02;;;;;;;;;;;24.10;63.40;;;;;;5093955;27;20397;-67
2022/06/25 14:20:28;;;;;;;;;;;24.10;63.60;;;;;;5108219;27;19928;-66
2022/06/25 14:22:54;;;;;;;;;;;24.10;63.80;;;;;;5091471;27;19931;-69
2022/06/25 14:25:24;;;;;;;;;;;24.20;63.90;;;;;;5110314;27;19923;-64
2022/06/25 14:27:51;;;;;;;;;;;24.20;63.70;;;;;;5109536;27;19923;-67
2022/06/25 14:30:17;;;;;;;;;;;24.10;63.60;;;;;;5092639;28;19978;-68
2022/06/25 14:32:42;;;;;;;;;;;24.20;63.70;;;;;;5111334;27;19926;-68
2022/06/25 14:35:08;;;;;;;;;;;24.20;63.60;;;;;;5107850;27;19924;-67
2022/06/25 14:43:02;;;;;;;;;;;24.20;61.80;;;;;;5109931;27;19931;-69